sensor_id;sensor_type;location;lat;lon;timestamp;temperature;humidity
11609;DHT22;5860;52.018;8.536;2022-11-24T00:01:22;7.40;99.90
11609;DHT22;5860;52.018;8.536;2022-11-24T00:03:57;7.40;99.90
11609;DHT22;5860;52.018;8.536;2022-11-24T00:06:26;7.30;99.90
11609;DHT22;5860;52.018;8.536;2022-11-24T00:08:54;7.30;99.90
11609;DHT22;5860;52.018;8.536;2022-11-24T00:11:24;7.40;99.90
11609;DHT22;5860;52.018;8.536;2022-11-24T00:13:51;7.30;99.90
11609;DHT22;5860;52.018;8.536;2022-11-24T00:16:31;7.30;99.90
11609;DHT22;5860;52.018;8.536;2022-11-24T00:18:59;7.40;99.90
11609;DHT22;5860;52.018;8.536;2022-11-24T00:21:28;7.40;99.90
11609;DHT22;5860;52.018;8.536;2022-11-24T00:23:56;7.40;99.90
11609;DHT22;5860;52.018;8.536;2022-11-24T00:26:25;7.40;99.90
11609;DHT22;5860;52.018;8.536;2022-11-24T00:28:54;7.40;99.90
11609;DHT22;5860;52.018;8.536;2022-11-24T00:31:26;7.40;99.90
11609;DHT22;5860;52.018;8.536;2022-11-24T00:33:57;7.40;99.90
11609;DHT22;5860;52.018;8.536;2022-11-24T00:36:26;7.40;99.90
11609;DHT22;5860;52.018;8.536;2022-11-24T00:38:58;7.40;99.90
11609;DHT22;5860;52.018;8.536;2022-11-24T00:41:27;7.40;99.90
11609;DHT22;5860;52.018;8.536;2022-11-24T00:43:55;7.40;99.90
11609;DHT22;5860;52.018;8.536;2022-11-24T00:46:22;7.40;99.90
11609;DHT22;5860;52.018;8.536;2022-11-24T00:48:50;7.50;99.90
11609;DHT22;5860;52.018;8.536;2022-11-24T00:54:43;7.30;99.90
11609;DHT22;5860;52.018;8.536;2022-11-24T00:57:10;7.20;99.90
11609;DHT22;5860;52.018;8.536;2022-11-24T00:59:36;7.30;99.90
11609;DHT22;5860;52.018;8.536;2022-11-24T01:02:03;7.20;99.90
11609;DHT22;5860;52.018;8.536;2022-11-24T01:04:30;7.20;99.90
11609;DHT22;5860;52.018;8.536;2022-11-24T01:06:57;7.10;99.90
11609;DHT22;5860;52.018;8.536;2022-11-24T01:09:24;7.20;99.90
11609;DHT22;5860;52.018;8.536;2022-11-24T01:11:52;7.30;99.90
11609;DHT22;5860;52.018;8.536;2022-11-24T01:14:29;7.30;99.90
11609;DHT22;5860;52.018;8.536;2022-11-24T01:16:57;7.20;99.90
11609;DHT22;5860;52.018;8.536;2022-11-24T01:19:24;7.30;99.90
11609;DHT22;5860;52.018;8.536;2022-11-24T01:21:51;7.40;99.90
11609;DHT22;5860;52.018;8.536;2022-11-24T01:24:18;7.30;99.90
11609;DHT22;5860;52.018;8.536;2022-11-24T01:26:45;7.30;99.90
11609;DHT22;5860;52.018;8.536;2022-11-24T01:29:12;7.40;99.90
11609;DHT22;5860;52.018;8.536;2022-11-24T01:31:39;7.20;99.90
11609;DHT22;5860;52.018;8.536;2022-11-24T01:34:06;7.30;99.90
11609;DHT22;5860;52.018;8.536;2022-11-24T01:36:33;7.30;99.90
11609;DHT22;5860;52.018;8.536;2022-11-24T01:39:00;7.40;99.90
11609;DHT22;5860;52.018;8.536;2022-11-24T01:41:27;7.30;99.90
11609;DHT22;5860;52.018;8.536;2022-11-24T01:43:54;7.30;99.90
11609;DHT22;5860;52.018;8.536;2022-11-24T01:46:27;7.20;99.90
11609;DHT22;5860;52.018;8.536;2022-11-24T01:49:04;7.20;99.90
11609;DHT22;5860;52.018;8.536;2022-11-24T01:51:58;7.20;99.90
11609;DHT22;5860;52.018;8.536;2022-11-24T01:54:30;7.20;99.90
11609;DHT22;5860;52.018;8.536;2022-11-24T01:57:09;7.20;99.90
11609;DHT22;5860;52.018;8.536;2022-11-24T01:59:38;7.20;99.90
11609;DHT22;5860;52.018;8.536;2022-11-24T02:02:05;7.20;99.90
11609;DHT22;5860;52.018;8.536;2022-11-24T02:04:33;7.20;99.90
11609;DHT22;5860;52.018;8.536;2022-11-24T02:07:02;7.20;99.90
11609;DHT22;5860;52.018;8.536;2022-11-24T02:09:50;7.20;99.90
11609;DHT22;5860;52.018;8.536;2022-11-24T02:12:19;7.20;99.90
11609;DHT22;5860;52.018;8.536;2022-11-24T02:14:45;7.30;99.90
11609;DHT22;5860;52.018;8.536;2022-11-24T02:17:12;7.20;99.90
11609;DHT22;5860;52.018;8.536;2022-11-24T02:22:29;7.20;99.90
11609;DHT22;5860;52.018;8.536;2022-11-24T02:27:25;7.20;99.90
11609;DHT22;5860;52.018;8.536;2022-11-24T02:29:52;7.20;99.90
11609;DHT22;5860;52.018;8.536;2022-11-24T02:32:19;7.30;99.90
11609;DHT22;5860;52.018;8.536;2022-11-24T02:34:46;7.20;99.90
11609;DHT22;5860;52.018;8.536;2022-11-24T02:37:13;7.20;99.90
11609;DHT22;5860;52.018;8.536;2022-11-24T02:39:40;7.10;99.90
11609;DHT22;5860;52.018;8.536;2022-11-24T02:42:10;7.10;99.90
11609;DHT22;5860;52.018;8.536;2022-11-24T02:44:48;7.00;99.90
11609;DHT22;5860;52.018;8.536;2022-11-24T02:47:15;6.90;99.90
11609;DHT22;5860;52.018;8.536;2022-11-24T02:49:42;7.00;99.90
11609;DHT22;5860;52.018;8.536;2022-11-24T02:52:09;7.00;99.90
11609;DHT22;5860;52.018;8.536;2022-11-24T02:54:36;7.00;99.90
11609;DHT22;5860;52.018;8.536;2022-11-24T02:57:03;7.00;99.90
11609;DHT22;5860;52.018;8.536;2022-11-24T02:59:30;7.00;99.90
11609;DHT22;5860;52.018;8.536;2022-11-24T03:01:57;7.00;99.90
11609;DHT22;5860;52.018;8.536;2022-11-24T03:04:24;7.00;99.90
11609;DHT22;5860;52.018;8.536;2022-11-24T03:06:50;6.90;99.90
11609;DHT22;5860;52.018;8.536;2022-11-24T03:09:17;7.20;99.90
11609;DHT22;5860;52.018;8.536;2022-11-24T03:11:44;7.20;99.90
11609;DHT22;5860;52.018;8.536;2022-11-24T03:14:11;7.20;99.90
11609;DHT22;5860;52.018;8.536;2022-11-24T03:16:38;7.40;99.90
11609;DHT22;5860;52.018;8.536;2022-11-24T03:19:04;7.40;99.90
11609;DHT22;5860;52.018;8.536;2022-11-24T03:21:31;7.40;99.90
11609;DHT22;5860;52.018;8.536;2022-11-24T03:23:58;7.30;99.90
11609;DHT22;5860;52.018;8.536;2022-11-24T03:26:26;7.30;99.90
11609;DHT22;5860;52.018;8.536;2022-11-24T03:28:56;7.30;99.90
11609;DHT22;5860;52.018;8.536;2022-11-24T03:31:23;7.30;99.90
11609;DHT22;5860;52.018;8.536;2022-11-24T03:33:50;7.30;99.90
11609;DHT22;5860;52.018;8.536;2022-11-24T03:36:17;7.20;99.90
11609;DHT22;5860;52.018;8.536;2022-11-24T03:38:44;7.20;99.90
11609;DHT22;5860;52.018;8.536;2022-11-24T03:41:11;7.20;99.90
11609;DHT22;5860;52.018;8.536;2022-11-24T03:43:38;7.20;99.90
11609;DHT22;5860;52.018;8.536;2022-11-24T03:46:10;7.30;99.90
11609;DHT22;5860;52.018;8.536;2022-11-24T03:48:37;7.30;99.90
11609;DHT22;5860;52.018;8.536;2022-11-24T03:51:04;7.30;99.90
11609;DHT22;5860;52.018;8.536;2022-11-24T03:53:32;7.40;99.90
11609;DHT22;5860;52.018;8.536;2022-11-24T03:55:59;7.30;99.90
11609;DHT22;5860;52.018;8.536;2022-11-24T03:58:28;7.40;99.90
11609;DHT22;5860;52.018;8.536;2022-11-24T04:00:55;7.60;99.90
11609;DHT22;5860;52.018;8.536;2022-11-24T04:03:23;7.50;99.90
11609;DHT22;5860;52.018;8.536;2022-11-24T04:05:50;7.60;99.90
11609;DHT22;5860;52.018;8.536;2022-11-24T04:08:18;7.60;99.90
11609;DHT22;5860;52.018;8.536;2022-11-24T04:10:48;7.60;99.90
11609;DHT22;5860;52.018;8.536;2022-11-24T04:13:17;7.60;99.90
11609;DHT22;5860;52.018;8.536;2022-11-24T04:15:44;7.60;99.90
11609;DHT22;5860;52.018;8.536;2022-11-24T04:18:12;7.60;99.90
11609;DHT22;5860;52.018;8.536;2022-11-24T04:20:39;7.50;99.90
11609;DHT22;5860;52.018;8.536;2022-11-24T04:23:07;7.50;99.90
11609;DHT22;5860;52.018;8.536;2022-11-24T04:25:34;7.60;99.90
11609;DHT22;5860;52.018;8.536;2022-11-24T04:28:02;7.60;99.90
11609;DHT22;5860;52.018;8.536;2022-11-24T04:30:29;7.50;99.90
11609;DHT22;5860;52.018;8.536;2022-11-24T04:32:56;7.50;99.90
11609;DHT22;5860;52.018;8.536;2022-11-24T04:35:23;7.50;99.90
11609;DHT22;5860;52.018;8.536;2022-11-24T04:37:50;7.50;99.90
11609;DHT22;5860;52.018;8.536;2022-11-24T04:40:18;7.60;99.90
11609;DHT22;5860;52.018;8.536;2022-11-24T04:42:52;7.70;99.90
11609;DHT22;5860;52.018;8.536;2022-11-24T04:45:21;7.60;99.90
11609;DHT22;5860;52.018;8.536;2022-11-24T04:47:48;7.60;99.90
11609;DHT22;5860;52.018;8.536;2022-11-24T04:50:15;7.50;99.90
11609;DHT22;5860;52.018;8.536;2022-11-24T04:52:42;7.50;99.90
11609;DHT22;5860;52.018;8.536;2022-11-24T04:55:09;7.40;99.90
11609;DHT22;5860;52.018;8.536;2022-11-24T04:57:36;7.50;99.90
11609;DHT22;5860;52.018;8.536;2022-11-24T05:00:03;7.40;99.90
11609;DHT22;5860;52.018;8.536;2022-11-24T05:02:30;7.40;99.90
11609;DHT22;5860;52.018;8.536;2022-11-24T05:04:56;7.30;99.90
11609;DHT22;5860;52.018;8.536;2022-11-24T05:07:23;7.30;99.90
11609;DHT22;5860;52.018;8.536;2022-11-24T05:09:50;7.30;99.90
11609;DHT22;5860;52.018;8.536;2022-11-24T05:12:36;7.40;99.90
11609;DHT22;5860;52.018;8.536;2022-11-24T05:15:04;7.50;99.90
11609;DHT22;5860;52.018;8.536;2022-11-24T05:17:34;7.50;99.90
11609;DHT22;5860;52.018;8.536;2022-11-24T05:20:02;7.40;99.90
11609;DHT22;5860;52.018;8.536;2022-11-24T05:22:29;7.40;99.90
11609;DHT22;5860;52.018;8.536;2022-11-24T05:24:57;7.40;99.90
11609;DHT22;5860;52.018;8.536;2022-11-24T05:27:24;7.40;99.90
11609;DHT22;5860;52.018;8.536;2022-11-24T05:29:51;7.40;99.90
11609;DHT22;5860;52.018;8.536;2022-11-24T05:32:18;7.40;99.90
11609;DHT22;5860;52.018;8.536;2022-11-24T05:34:44;7.50;99.90
11609;DHT22;5860;52.018;8.536;2022-11-24T05:37:11;7.50;99.90
11609;DHT22;5860;52.018;8.536;2022-11-24T05:39:38;7.60;99.90
11609;DHT22;5860;52.018;8.536;2022-11-24T05:42:06;7.50;99.90
11609;DHT22;5860;52.018;8.536;2022-11-24T05:44:52;7.60;99.90
11609;DHT22;5860;52.018;8.536;2022-11-24T05:47:19;7.60;99.90
11609;DHT22;5860;52.018;8.536;2022-11-24T05:49:46;7.60;99.90
11609;DHT22;5860;52.018;8.536;2022-11-24T05:52:12;7.60;99.90
11609;DHT22;5860;52.018;8.536;2022-11-24T05:54:39;7.70;99.90
11609;DHT22;5860;52.018;8.536;2022-11-24T05:57:06;7.70;99.90
11609;DHT22;5860;52.018;8.536;2022-11-24T05:59:33;7.80;99.90
11609;DHT22;5860;52.018;8.536;2022-11-24T06:02:00;7.80;99.90
11609;DHT22;5860;52.018;8.536;2022-11-24T06:04:27;7.90;99.90
11609;DHT22;5860;52.018;8.536;2022-11-24T06:06:53;7.90;99.90
11609;DHT22;5860;52.018;8.536;2022-11-24T06:09:20;7.90;99.90
11609;DHT22;5860;52.018;8.536;2022-11-24T06:11:47;7.90;99.90
11609;DHT22;5860;52.018;8.536;2022-11-24T06:14:14;7.90;99.90
11609;DHT22;5860;52.018;8.536;2022-11-24T06:16:41;8.00;99.90
11609;DHT22;5860;52.018;8.536;2022-11-24T06:19:11;8.00;99.90
11609;DHT22;5860;52.018;8.536;2022-11-24T06:21:38;8.00;99.90
11609;DHT22;5860;52.018;8.536;2022-11-24T06:24:05;8.00;99.90
11609;DHT22;5860;52.018;8.536;2022-11-24T06:26:32;8.10;99.90
11609;DHT22;5860;52.018;8.536;2022-11-24T06:28:58;8.10;99.90
11609;DHT22;5860;52.018;8.536;2022-11-24T06:31:25;8.20;99.90
11609;DHT22;5860;52.018;8.536;2022-11-24T06:33:52;8.30;99.90
11609;DHT22;5860;52.018;8.536;2022-11-24T06:36:19;8.30;99.90
11609;DHT22;5860;52.018;8.536;2022-11-24T06:38:46;8.30;99.90
11609;DHT22;5860;52.018;8.536;2022-11-24T06:41:14;8.30;99.90
11609;DHT22;5860;52.018;8.536;2022-11-24T06:43:42;8.30;99.90
11609;DHT22;5860;52.018;8.536;2022-11-24T06:46:09;8.30;99.90
11609;DHT22;5860;52.018;8.536;2022-11-24T06:48:37;8.20;99.90
11609;DHT22;5860;52.018;8.536;2022-11-24T06:51:09;8.20;99.90
11609;DHT22;5860;52.018;8.536;2022-11-24T06:53:39;8.30;99.90
11609;DHT22;5860;52.018;8.536;2022-11-24T06:56:08;8.40;99.90
11609;DHT22;5860;52.018;8.536;2022-11-24T06:58:44;8.40;99.90
11609;DHT22;5860;52.018;8.536;2022-11-24T07:01:15;8.40;99.90
11609;DHT22;5860;52.018;8.536;2022-11-24T07:03:42;8.40;99.90
11609;DHT22;5860;52.018;8.536;2022-11-24T07:06:09;8.40;99.90
11609;DHT22;5860;52.018;8.536;2022-11-24T07:08:36;8.40;99.90
11609;DHT22;5860;52.018;8.536;2022-11-24T07:11:04;8.40;99.90
11609;DHT22;5860;52.018;8.536;2022-11-24T07:13:31;8.50;99.90
11609;DHT22;5860;52.018;8.536;2022-11-24T07:15:59;8.50;99.90
11609;DHT22;5860;52.018;8.536;2022-11-24T07:18:26;8.50;99.90
11609;DHT22;5860;52.018;8.536;2022-11-24T07:20:53;8.50;99.90
11609;DHT22;5860;52.018;8.536;2022-11-24T07:23:20;8.50;99.90
11609;DHT22;5860;52.018;8.536;2022-11-24T07:25:47;8.50;99.90
11609;DHT22;5860;52.018;8.536;2022-11-24T07:28:14;8.50;99.90
11609;DHT22;5860;52.018;8.536;2022-11-24T07:30:41;8.50;99.90
11609;DHT22;5860;52.018;8.536;2022-11-24T07:33:07;8.50;99.90
11609;DHT22;5860;52.018;8.536;2022-11-24T07:35:34;8.60;99.90
11609;DHT22;5860;52.018;8.536;2022-11-24T07:38:01;8.60;99.90
11609;DHT22;5860;52.018;8.536;2022-11-24T07:40:28;8.60;99.90
11609;DHT22;5860;52.018;8.536;2022-11-24T07:42:55;8.50;99.90
11609;DHT22;5860;52.018;8.536;2022-11-24T07:45:25;8.50;99.90
11609;DHT22;5860;52.018;8.536;2022-11-24T07:47:52;8.40;99.90
11609;DHT22;5860;52.018;8.536;2022-11-24T07:50:19;8.30;99.90
11609;DHT22;5860;52.018;8.536;2022-11-24T07:52:46;8.30;99.90
11609;DHT22;5860;52.018;8.536;2022-11-24T07:55:13;8.20;99.90
11609;DHT22;5860;52.018;8.536;2022-11-24T07:57:40;8.10;99.90
11609;DHT22;5860;52.018;8.536;2022-11-24T08:00:07;8.20;99.90
11609;DHT22;5860;52.018;8.536;2022-11-24T08:02:34;8.30;99.90
11609;DHT22;5860;52.018;8.536;2022-11-24T08:05:01;8.20;99.90
11609;DHT22;5860;52.018;8.536;2022-11-24T08:07:28;8.40;99.90
11609;DHT22;5860;52.018;8.536;2022-11-24T08:09:55;8.40;99.90
11609;DHT22;5860;52.018;8.536;2022-11-24T08:12:22;8.50;99.90
11609;DHT22;5860;52.018;8.536;2022-11-24T08:14:49;8.50;99.90
11609;DHT22;5860;52.018;8.536;2022-11-24T08:17:17;8.60;99.90
11609;DHT22;5860;52.018;8.536;2022-11-24T08:19:44;8.70;99.90
11609;DHT22;5860;52.018;8.536;2022-11-24T08:22:11;8.90;99.90
11609;DHT22;5860;52.018;8.536;2022-11-24T08:24:38;8.90;99.90
11609;DHT22;5860;52.018;8.536;2022-11-24T08:27:15;9.00;99.90
11609;DHT22;5860;52.018;8.536;2022-11-24T08:29:42;9.00;99.90
11609;DHT22;5860;52.018;8.536;2022-11-24T08:32:10;9.00;99.90
11609;DHT22;5860;52.018;8.536;2022-11-24T08:34:43;9.10;99.90
11609;DHT22;5860;52.018;8.536;2022-11-24T08:37:10;9.10;99.90
11609;DHT22;5860;52.018;8.536;2022-11-24T08:39:37;9.10;99.90
11609;DHT22;5860;52.018;8.536;2022-11-24T08:42:04;9.10;99.90
11609;DHT22;5860;52.018;8.536;2022-11-24T08:44:31;9.20;99.90
11609;DHT22;5860;52.018;8.536;2022-11-24T08:46:58;9.20;99.90
11609;DHT22;5860;52.018;8.536;2022-11-24T08:49:25;9.30;99.90
11609;DHT22;5860;52.018;8.536;2022-11-24T08:51:52;9.30;99.90
11609;DHT22;5860;52.018;8.536;2022-11-24T08:54:19;9.20;99.90
11609;DHT22;5860;52.018;8.536;2022-11-24T08:56:48;9.20;99.90
11609;DHT22;5860;52.018;8.536;2022-11-24T08:59:15;9.20;99.90
11609;DHT22;5860;52.018;8.536;2022-11-24T09:01:42;9.20;99.90
11609;DHT22;5860;52.018;8.536;2022-11-24T09:04:09;9.20;99.90
11609;DHT22;5860;52.018;8.536;2022-11-24T09:06:36;9.10;99.90
11609;DHT22;5860;52.018;8.536;2022-11-24T09:09:03;9.10;99.90
11609;DHT22;5860;52.018;8.536;2022-11-24T09:11:32;9.20;99.90
11609;DHT22;5860;52.018;8.536;2022-11-24T09:13:59;9.20;99.90
11609;DHT22;5860;52.018;8.536;2022-11-24T09:16:27;9.20;99.90
11609;DHT22;5860;52.018;8.536;2022-11-24T09:19:00;9.20;99.90
11609;DHT22;5860;52.018;8.536;2022-11-24T09:21:27;9.20;99.90
11609;DHT22;5860;52.018;8.536;2022-11-24T09:23:55;9.20;99.90
11609;DHT22;5860;52.018;8.536;2022-11-24T09:26:26;9.30;99.90
11609;DHT22;5860;52.018;8.536;2022-11-24T09:28:55;9.30;99.90
11609;DHT22;5860;52.018;8.536;2022-11-24T09:31:25;9.30;99.90
11609;DHT22;5860;52.018;8.536;2022-11-24T09:33:52;9.30;99.90
11609;DHT22;5860;52.018;8.536;2022-11-24T09:36:20;9.30;99.90
11609;DHT22;5860;52.018;8.536;2022-11-24T09:38:47;9.40;99.90
11609;DHT22;5860;52.018;8.536;2022-11-24T09:42:22;9.50;99.90
11609;DHT22;5860;52.018;8.536;2022-11-24T09:48:27;9.30;99.90
11609;DHT22;5860;52.018;8.536;2022-11-24T09:50:58;9.40;99.90
11609;DHT22;5860;52.018;8.536;2022-11-24T09:53:42;9.30;99.90
11609;DHT22;5860;52.018;8.536;2022-11-24T09:58:53;9.40;99.90
11609;DHT22;5860;52.018;8.536;2022-11-24T10:01:29;9.40;99.90
11609;DHT22;5860;52.018;8.536;2022-11-24T10:03:57;9.30;99.90
11609;DHT22;5860;52.018;8.536;2022-11-24T10:06:43;9.30;99.90
11609;DHT22;5860;52.018;8.536;2022-11-24T10:09:42;9.30;99.90
11609;DHT22;5860;52.018;8.536;2022-11-24T10:23:25;9.30;99.90
11609;DHT22;5860;52.018;8.536;2022-11-24T10:25:57;9.20;99.90
11609;DHT22;5860;52.018;8.536;2022-11-24T10:28:30;9.20;99.90
11609;DHT22;5860;52.018;8.536;2022-11-24T10:31:35;9.20;99.90
11609;DHT22;5860;52.018;8.536;2022-11-24T10:34:17;9.20;99.90
11609;DHT22;5860;52.018;8.536;2022-11-24T10:37:02;9.20;99.90
11609;DHT22;5860;52.018;8.536;2022-11-24T10:39:39;9.20;99.90
11609;DHT22;5860;52.018;8.536;2022-11-24T10:42:29;9.20;99.90
11609;DHT22;5860;52.018;8.536;2022-11-24T10:45:21;9.30;99.90
11609;DHT22;5860;52.018;8.536;2022-11-24T10:47:48;9.40;99.90
11609;DHT22;5860;52.018;8.536;2022-11-24T10:50:27;9.40;99.90
11609;DHT22;5860;52.018;8.536;2022-11-24T10:58:42;9.30;99.90
11609;DHT22;5860;52.018;8.536;2022-11-24T11:03:48;9.40;99.90
11609;DHT22;5860;52.018;8.536;2022-11-24T11:06:27;9.50;99.90
11609;DHT22;5860;52.018;8.536;2022-11-24T11:11:34;9.50;99.90
11609;DHT22;5860;52.018;8.536;2022-11-24T11:14:09;9.50;99.90
11609;DHT22;5860;52.018;8.536;2022-11-24T11:16:51;9.60;99.90
11609;DHT22;5860;52.018;8.536;2022-11-24T11:19:37;9.40;99.90
11609;DHT22;5860;52.018;8.536;2022-11-24T11:22:29;9.50;99.90
11609;DHT22;5860;52.018;8.536;2022-11-24T11:27:36;9.40;99.90
11609;DHT22;5860;52.018;8.536;2022-11-24T11:30:18;9.40;99.90
11609;DHT22;5860;52.018;8.536;2022-11-24T11:33:22;9.40;99.90
11609;DHT22;5860;52.018;8.536;2022-11-24T11:36:10;9.40;99.90
11609;DHT22;5860;52.018;8.536;2022-11-24T11:38:38;9.40;99.90
11609;DHT22;5860;52.018;8.536;2022-11-24T11:41:13;9.50;99.90
11609;DHT22;5860;52.018;8.536;2022-11-24T11:43:43;9.60;99.90
11609;DHT22;5860;52.018;8.536;2022-11-24T11:46:13;9.60;99.90
11609;DHT22;5860;52.018;8.536;2022-11-24T11:48:44;9.60;99.90
11609;DHT22;5860;52.018;8.536;2022-11-24T12:12:54;9.50;99.90
11609;DHT22;5860;52.018;8.536;2022-11-24T12:18:50;9.50;99.90
11609;DHT22;5860;52.018;8.536;2022-11-24T12:24:39;9.40;99.90
11609;DHT22;5860;52.018;8.536;2022-11-24T12:27:44;9.40;99.90
11609;DHT22;5860;52.018;8.536;2022-11-24T12:30:16;9.30;99.90
11609;DHT22;5860;52.018;8.536;2022-11-24T12:33:19;9.40;99.90
11609;DHT22;5860;52.018;8.536;2022-11-24T12:36:02;9.30;99.90
11609;DHT22;5860;52.018;8.536;2022-11-24T12:41:20;9.30;99.90
11609;DHT22;5860;52.018;8.536;2022-11-24T12:46:58;9.30;99.90
11609;DHT22;5860;52.018;8.536;2022-11-24T12:49:36;9.30;99.90
11609;DHT22;5860;52.018;8.536;2022-11-24T12:52:13;9.40;99.90
11609;DHT22;5860;52.018;8.536;2022-11-24T12:54:42;9.40;99.90
11609;DHT22;5860;52.018;8.536;2022-11-24T12:57:24;9.40;99.90
11609;DHT22;5860;52.018;8.536;2022-11-24T12:59:56;9.40;99.90
11609;DHT22;5860;52.018;8.536;2022-11-24T13:08:01;9.40;99.90
11609;DHT22;5860;52.018;8.536;2022-11-24T13:10:36;9.50;99.90
11609;DHT22;5860;52.018;8.536;2022-11-24T13:13:28;9.50;99.90
11609;DHT22;5860;52.018;8.536;2022-11-24T13:16:14;9.50;99.90
11609;DHT22;5860;52.018;8.536;2022-11-24T13:19:12;9.50;99.90
11609;DHT22;5860;52.018;8.536;2022-11-24T13:26:51;9.60;99.90
11609;DHT22;5860;52.018;8.536;2022-11-24T14:07:05;9.50;99.90
11609;DHT22;5860;52.018;8.536;2022-11-24T14:09:42;9.50;99.90
11609;DHT22;5860;52.018;8.536;2022-11-24T14:12:19;9.50;99.90
11609;DHT22;5860;52.018;8.536;2022-11-24T14:14:49;9.50;99.90
11609;DHT22;5860;52.018;8.536;2022-11-24T14:17:21;9.50;99.90
11609;DHT22;5860;52.018;8.536;2022-11-24T14:19:51;9.40;99.90
11609;DHT22;5860;52.018;8.536;2022-11-24T14:24:57;9.30;99.90
11609;DHT22;5860;52.018;8.536;2022-11-24T14:27:34;9.30;99.90
11609;DHT22;5860;52.018;8.536;2022-11-24T14:30:21;9.30;99.90
11609;DHT22;5860;52.018;8.536;2022-11-24T14:32:59;9.20;99.90
11609;DHT22;5860;52.018;8.536;2022-11-24T14:35:32;9.20;99.90
11609;DHT22;5860;52.018;8.536;2022-11-24T14:38:04;9.20;99.90
11609;DHT22;5860;52.018;8.536;2022-11-24T14:46:04;9.30;99.90
11609;DHT22;5860;52.018;8.536;2022-11-24T14:48:37;9.30;99.90
11609;DHT22;5860;52.018;8.536;2022-11-24T14:53:45;9.30;99.90
11609;DHT22;5860;52.018;8.536;2022-11-24T14:58:56;9.30;99.90
11609;DHT22;5860;52.018;8.536;2022-11-24T15:04:22;9.30;99.90
11609;DHT22;5860;52.018;8.536;2022-11-24T15:07:18;9.40;99.90
11609;DHT22;5860;52.018;8.536;2022-11-24T15:09:59;9.30;99.90
11609;DHT22;5860;52.018;8.536;2022-11-24T15:12:30;9.30;99.90
11609;DHT22;5860;52.018;8.536;2022-11-24T15:15:03;9.20;99.90
11609;DHT22;5860;52.018;8.536;2022-11-24T15:17:30;9.10;99.90
11609;DHT22;5860;52.018;8.536;2022-11-24T15:20:07;9.10;99.90
11609;DHT22;5860;52.018;8.536;2022-11-24T15:22:37;9.10;99.90
11609;DHT22;5860;52.018;8.536;2022-11-24T15:27:50;9.10;99.90
11609;DHT22;5860;52.018;8.536;2022-11-24T15:30:18;9.00;99.90
11609;DHT22;5860;52.018;8.536;2022-11-24T15:32:54;9.00;99.90
11609;DHT22;5860;52.018;8.536;2022-11-24T15:35:23;9.10;99.90
11609;DHT22;5860;52.018;8.536;2022-11-24T15:37:51;9.10;99.90
11609;DHT22;5860;52.018;8.536;2022-11-24T15:40:18;9.10;99.90
11609;DHT22;5860;52.018;8.536;2022-11-24T15:42:52;9.10;99.90
11609;DHT22;5860;52.018;8.536;2022-11-24T15:45:21;9.10;99.90
11609;DHT22;5860;52.018;8.536;2022-11-24T15:47:49;9.10;99.90
11609;DHT22;5860;52.018;8.536;2022-11-24T15:50:17;9.00;99.90
11609;DHT22;5860;52.018;8.536;2022-11-24T15:52:44;8.80;99.90
11609;DHT22;5860;52.018;8.536;2022-11-24T15:55:19;8.60;99.90
11609;DHT22;5860;52.018;8.536;2022-11-24T15:57:48;8.60;99.90
11609;DHT22;5860;52.018;8.536;2022-11-24T16:00:21;8.70;99.90
11609;DHT22;5860;52.018;8.536;2022-11-24T16:02:49;8.50;99.90
11609;DHT22;5860;52.018;8.536;2022-11-24T16:05:16;8.40;99.90
11609;DHT22;5860;52.018;8.536;2022-11-24T16:07:43;8.20;99.90
11609;DHT22;5860;52.018;8.536;2022-11-24T16:10:25;8.20;99.90
11609;DHT22;5860;52.018;8.536;2022-11-24T16:12:54;8.20;99.90
11609;DHT22;5860;52.018;8.536;2022-11-24T16:15:20;8.20;99.90
11609;DHT22;5860;52.018;8.536;2022-11-24T16:17:47;8.30;99.90
11609;DHT22;5860;52.018;8.536;2022-11-24T16:20:14;8.10;99.90
11609;DHT22;5860;52.018;8.536;2022-11-24T16:22:42;8.20;99.90
11609;DHT22;5860;52.018;8.536;2022-11-24T16:25:09;8.10;99.90
11609;DHT22;5860;52.018;8.536;2022-11-24T16:27:37;8.10;99.90
11609;DHT22;5860;52.018;8.536;2022-11-24T16:30:05;7.90;99.90
11609;DHT22;5860;52.018;8.536;2022-11-24T16:32:32;7.90;99.90
11609;DHT22;5860;52.018;8.536;2022-11-24T16:34:59;7.90;99.90
11609;DHT22;5860;52.018;8.536;2022-11-24T16:37:26;8.10;99.90
11609;DHT22;5860;52.018;8.536;2022-11-24T16:39:53;8.00;99.90
11609;DHT22;5860;52.018;8.536;2022-11-24T16:42:19;7.90;99.90
11609;DHT22;5860;52.018;8.536;2022-11-24T16:44:46;7.80;99.90
11609;DHT22;5860;52.018;8.536;2022-11-24T16:47:13;7.80;99.90
11609;DHT22;5860;52.018;8.536;2022-11-24T16:49:40;7.90;99.90
11609;DHT22;5860;52.018;8.536;2022-11-24T16:52:07;8.00;99.90
11609;DHT22;5860;52.018;8.536;2022-11-24T16:54:34;7.90;99.90
11609;DHT22;5860;52.018;8.536;2022-11-24T16:57:02;7.80;99.90
11609;DHT22;5860;52.018;8.536;2022-11-24T16:59:29;7.80;99.90
11609;DHT22;5860;52.018;8.536;2022-11-24T17:01:55;7.70;99.90
11609;DHT22;5860;52.018;8.536;2022-11-24T17:04:22;7.70;99.90
11609;DHT22;5860;52.018;8.536;2022-11-24T17:06:50;7.60;99.90
11609;DHT22;5860;52.018;8.536;2022-11-24T17:09:17;7.50;99.90
11609;DHT22;5860;52.018;8.536;2022-11-24T17:11:44;7.50;99.90
11609;DHT22;5860;52.018;8.536;2022-11-24T17:14:11;7.50;99.90
11609;DHT22;5860;52.018;8.536;2022-11-24T17:16:39;7.40;99.90
11609;DHT22;5860;52.018;8.536;2022-11-24T17:19:06;7.50;99.90
11609;DHT22;5860;52.018;8.536;2022-11-24T17:21:33;7.60;99.90
11609;DHT22;5860;52.018;8.536;2022-11-24T17:24:01;7.50;99.90
11609;DHT22;5860;52.018;8.536;2022-11-24T17:26:31;7.40;99.90
11609;DHT22;5860;52.018;8.536;2022-11-24T17:28:58;7.30;99.90
11609;DHT22;5860;52.018;8.536;2022-11-24T17:31:27;7.30;99.90
11609;DHT22;5860;52.018;8.536;2022-11-24T17:33:56;7.30;99.90
11609;DHT22;5860;52.018;8.536;2022-11-24T17:36:23;7.20;99.90
11609;DHT22;5860;52.018;8.536;2022-11-24T17:38:51;7.20;99.90
11609;DHT22;5860;52.018;8.536;2022-11-24T17:41:18;7.20;99.90
11609;DHT22;5860;52.018;8.536;2022-11-24T17:43:50;7.10;99.90
11609;DHT22;5860;52.018;8.536;2022-11-24T17:46:17;7.20;99.90
11609;DHT22;5860;52.018;8.536;2022-11-24T17:48:45;7.20;99.90
11609;DHT22;5860;52.018;8.536;2022-11-24T17:51:14;7.20;99.90
11609;DHT22;5860;52.018;8.536;2022-11-24T17:53:43;7.20;99.90
11609;DHT22;5860;52.018;8.536;2022-11-24T17:56:13;7.20;99.90
11609;DHT22;5860;52.018;8.536;2022-11-24T17:58:40;7.20;99.90
11609;DHT22;5860;52.018;8.536;2022-11-24T18:01:09;7.20;99.90
11609;DHT22;5860;52.018;8.536;2022-11-24T18:03:38;7.10;99.90
11609;DHT22;5860;52.018;8.536;2022-11-24T18:06:06;7.20;99.90
11609;DHT22;5860;52.018;8.536;2022-11-24T18:08:35;7.20;99.90
11609;DHT22;5860;52.018;8.536;2022-11-24T18:11:16;7.20;99.90
11609;DHT22;5860;52.018;8.536;2022-11-24T18:13:46;7.10;99.90
11609;DHT22;5860;52.018;8.536;2022-11-24T18:16:30;7.00;99.90
11609;DHT22;5860;52.018;8.536;2022-11-24T18:19:00;7.00;99.90
11609;DHT22;5860;52.018;8.536;2022-11-24T18:21:38;7.00;99.90
11609;DHT22;5860;52.018;8.536;2022-11-24T18:24:07;7.00;99.90
11609;DHT22;5860;52.018;8.536;2022-11-24T18:26:34;6.90;99.90
11609;DHT22;5860;52.018;8.536;2022-11-24T18:29:01;6.90;99.90
11609;DHT22;5860;52.018;8.536;2022-11-24T18:31:27;6.90;99.90
11609;DHT22;5860;52.018;8.536;2022-11-24T18:33:57;6.90;99.90
11609;DHT22;5860;52.018;8.536;2022-11-24T18:36:24;6.90;99.90
11609;DHT22;5860;52.018;8.536;2022-11-24T18:39:00;6.80;99.90
11609;DHT22;5860;52.018;8.536;2022-11-24T18:41:27;6.90;99.90
11609;DHT22;5860;52.018;8.536;2022-11-24T18:43:54;6.90;99.90